createdAt,value
2018-09-08T00:01:58.944Z,13.70
2018-09-08T00:04:26.628Z,17.90
2018-09-08T00:06:59.888Z,13.33
2018-09-08T00:09:27.587Z,25.87
2018-09-08T00:11:55.302Z,12.03
2018-09-08T00:14:22.991Z,21.60
2018-09-08T00:16:56.251Z,22.93
2018-09-08T00:19:29.749Z,18.57
2018-09-08T00:22:03.007Z,25.30
2018-09-08T00:24:36.213Z,11.63
2018-09-08T00:27:03.354Z,24.93
2018-09-08T00:29:50.148Z,21.83
2018-09-08T00:32:18.978Z,27.17
2018-09-08T00:34:46.655Z,16.43
2018-09-08T00:37:14.388Z,23.50
2018-09-08T00:39:43.132Z,12.93
2018-09-08T00:42:11.368Z,14.57
2018-09-08T00:44:39.067Z,20.20
2018-09-08T00:47:06.759Z,18.97
2018-09-08T00:49:34.466Z,32.30
2018-09-08T00:52:02.188Z,40.97
2018-09-08T00:54:29.893Z,35.80
2018-09-08T00:56:57.644Z,34.70
2018-09-08T00:59:25.312Z,35.90
2018-09-08T01:01:53.064Z,34.03
2018-09-08T01:04:20.744Z,42.90
2018-09-08T01:06:48.431Z,34.10
2018-09-08T01:09:16.121Z,35.97
2018-09-08T01:11:43.795Z,30.90
2018-09-08T01:14:11.577Z,37.80
2018-09-08T01:16:39.252Z,60.33
2018-09-08T01:19:07.099Z,28.13
2018-09-08T01:21:35.088Z,38.60
2018-09-08T01:24:02.761Z,27.77
2018-09-08T01:26:30.501Z,36.23
2018-09-08T01:28:58.178Z,31.07
2018-09-08T01:31:25.910Z,35.37
2018-09-08T01:33:53.661Z,34.50
2018-09-08T01:36:21.364Z,43.13
2018-09-08T01:38:49.139Z,52.03
2018-09-08T01:41:16.935Z,40.40
2018-09-08T01:43:44.608Z,34.37
2018-09-08T01:46:12.305Z,33.47
2018-09-08T01:48:40.039Z,26.57
2018-09-08T01:51:07.799Z,32.97
2018-09-08T01:53:35.508Z,49.57
2018-09-08T01:56:03.239Z,43.60
2018-09-08T01:58:31.083Z,41.73
2018-09-08T02:00:58.801Z,27.93
2018-09-08T02:03:26.516Z,46.40
2018-09-08T02:05:54.267Z,56.80
2018-09-08T02:08:21.975Z,34.90
2018-09-08T02:10:49.846Z,37.63
2018-09-08T02:13:17.719Z,35.70
2018-09-08T02:15:45.431Z,28.57
2018-09-08T02:18:13.131Z,33.13
2018-09-08T02:20:40.896Z,46.90
2018-09-08T02:23:08.575Z,29.47
2018-09-08T02:25:36.292Z,38.83
2018-09-08T02:28:04.070Z,43.87
2018-09-08T02:30:31.841Z,51.87
2018-09-08T02:32:59.556Z,48.97
2018-09-08T02:35:27.282Z,32.10
2018-09-08T02:37:54.978Z,30.00
2018-09-08T02:40:22.668Z,31.17
2018-09-08T02:42:50.442Z,31.97
2018-09-08T02:45:18.207Z,23.83
2018-09-08T02:47:45.923Z,29.53
2018-09-08T02:50:37.633Z,31.53
2018-09-08T02:53:04.835Z,24.97
2018-09-08T02:55:31.876Z,30.63
2018-09-08T02:57:58.765Z,33.57
2018-09-08T03:00:25.879Z,39.40
2018-09-08T03:02:52.769Z,34.53
2018-09-08T03:05:19.289Z,35.07
2018-09-08T03:07:45.835Z,30.50
2018-09-08T03:10:12.612Z,36.23
2018-09-08T03:12:39.095Z,37.97
2018-09-08T03:15:05.556Z,35.80
2018-09-08T03:17:32.031Z,41.63
2018-09-08T03:19:58.501Z,36.70
2018-09-08T03:22:25.032Z,35.70
2018-09-08T03:24:51.495Z,38.20
2018-09-08T03:27:18.261Z,37.63
2018-09-08T03:29:44.753Z,38.80
2018-09-08T03:32:11.344Z,44.63
2018-09-08T03:34:37.821Z,30.63
2018-09-08T03:37:04.289Z,37.13
2018-09-08T03:39:30.779Z,30.07
2018-09-08T03:41:57.243Z,30.33
2018-09-08T03:44:23.775Z,31.87
2018-09-08T03:46:50.288Z,35.23
2018-09-08T03:49:16.743Z,30.60
2018-09-08T03:51:43.220Z,28.53
2018-09-08T03:54:09.785Z,26.07
2018-09-08T03:56:36.239Z,30.80
2018-09-08T03:59:02.909Z,30.30
2018-09-08T04:01:29.347Z,29.83
2018-09-08T04:03:57.141Z,31.23
2018-09-08T04:06:24.865Z,29.40
2018-09-08T04:08:52.625Z,33.00
2018-09-08T04:11:20.372Z,38.00
2018-09-08T04:13:48.115Z,30.90
2018-09-08T04:16:15.820Z,28.80
2018-09-08T04:18:43.547Z,28.43
2018-09-08T04:21:11.484Z,27.80
2018-09-08T04:23:39.189Z,29.53
2018-09-08T04:26:07.208Z,30.43
2018-09-08T04:28:34.903Z,28.90
2018-09-08T04:31:03.580Z,24.60
2018-09-08T04:33:31.371Z,26.97
2018-09-08T04:35:59.134Z,26.03
2018-09-08T04:38:26.847Z,29.20
2018-09-08T04:40:54.650Z,26.90
2018-09-08T04:43:22.323Z,22.00
2018-09-08T04:45:50.041Z,23.43
2018-09-08T04:48:17.908Z,23.67
2018-09-08T04:50:45.668Z,25.80
2018-09-08T04:53:13.379Z,22.63
2018-09-08T04:55:41.104Z,22.33
2018-09-08T04:58:08.820Z,21.63
2018-09-08T05:00:36.519Z,23.93
2018-09-08T05:03:04.353Z,21.13
2018-09-08T05:05:32.096Z,22.77
2018-09-08T05:07:59.845Z,22.60
2018-09-08T05:10:27.555Z,23.03
2018-09-08T05:12:55.292Z,22.77
2018-09-08T05:15:23.020Z,20.37
2018-09-08T05:17:50.728Z,22.80
2018-09-08T05:20:18.426Z,22.17
2018-09-08T05:22:46.192Z,19.30
2018-09-08T05:25:13.882Z,18.80
2018-09-08T05:27:41.633Z,18.27
2018-09-08T05:30:09.384Z,21.20
2018-09-08T05:32:37.241Z,17.30
2018-09-08T05:35:05.033Z,18.13
2018-09-08T05:37:32.769Z,17.00
2018-09-08T05:40:00.528Z,18.53
2018-09-08T05:42:28.207Z,14.77
2018-09-08T05:44:55.904Z,17.63
2018-09-08T05:47:23.627Z,16.70
2018-09-08T05:49:51.351Z,19.40
2018-09-08T05:52:19.068Z,16.07
2018-09-08T05:54:46.810Z,15.00
2018-09-08T05:57:14.595Z,17.17
2018-09-08T05:59:42.299Z,14.80
2018-09-08T06:02:10.000Z,16.13
2018-09-08T06:04:37.780Z,11.53
2018-09-08T06:07:06.095Z,14.20
2018-09-08T06:09:34.660Z,13.83
2018-09-08T06:12:02.409Z,12.30
2018-09-08T06:14:31.289Z,13.27
2018-09-08T06:16:59.280Z,14.57
2018-09-08T06:19:27.092Z,11.77
2018-09-08T06:21:54.791Z,10.60
2018-09-08T06:24:22.577Z,13.53
2018-09-08T06:26:50.296Z,13.67
2018-09-08T06:29:18.297Z,12.87
2018-09-08T06:31:46.495Z,12.87
2018-09-08T06:34:14.495Z,11.80
2018-09-08T06:36:42.437Z,13.77
2018-09-08T06:39:12.091Z,12.87
2018-09-08T06:41:39.827Z,11.67
2018-09-08T06:44:07.623Z,11.07
2018-09-08T06:46:35.556Z,10.73
2018-09-08T06:49:03.951Z,11.20
2018-09-08T06:51:32.016Z,10.40
2018-09-08T06:53:59.749Z,13.07
2018-09-08T06:56:27.499Z,9.43
2018-09-08T06:58:55.272Z,9.97
2018-09-08T07:01:23.051Z,11.67
2018-09-08T07:03:50.757Z,9.27
2018-09-08T07:06:18.521Z,12.30
2018-09-08T07:08:46.269Z,8.37
2018-09-08T07:11:14.009Z,8.67
2018-09-08T07:13:41.716Z,8.43
2018-09-08T07:16:09.500Z,9.33
2018-09-08T07:18:37.245Z,7.70
2018-09-08T07:21:05.197Z,7.20
2018-09-08T07:23:33.225Z,10.10
2018-09-08T07:26:01.340Z,6.97
2018-09-08T07:28:29.151Z,6.97
2018-09-08T07:30:56.900Z,8.83
2018-09-08T07:33:25.612Z,8.50
2018-09-08T07:35:53.386Z,7.00
2018-09-08T07:38:21.122Z,6.40
2018-09-08T07:40:48.840Z,6.77
2018-09-08T07:43:16.592Z,6.60
2018-09-08T07:45:44.311Z,7.40
2018-09-08T07:48:12.052Z,7.50
2018-09-08T07:50:39.751Z,5.40
2018-09-08T07:53:07.556Z,9.23
2018-09-08T07:55:35.319Z,7.23
2018-09-08T07:58:03.073Z,5.00
2018-09-08T08:00:30.821Z,5.73
2018-09-08T08:02:58.536Z,8.60
2018-09-08T08:05:26.252Z,5.80
2018-09-08T08:07:54.004Z,5.93
2018-09-08T08:10:21.712Z,6.17
2018-09-08T08:12:49.599Z,5.33
2018-09-08T08:15:17.339Z,5.07
2018-09-08T08:17:45.094Z,5.63
2018-09-08T08:20:12.843Z,7.53
2018-09-08T08:22:40.648Z,6.90
2018-09-08T08:25:08.416Z,8.00
2018-09-08T08:27:36.171Z,6.17
2018-09-08T08:30:04.217Z,5.97
2018-09-08T08:32:31.952Z,6.43
2018-09-08T08:34:59.688Z,5.60
2018-09-08T08:37:27.473Z,5.43
2018-09-08T08:39:55.207Z,4.80
2018-09-08T08:42:22.958Z,6.50
2018-09-08T08:44:50.708Z,6.50
2018-09-08T08:47:18.509Z,5.07
2018-09-08T08:49:56.603Z,8.03
2018-09-08T08:52:35.556Z,7.57
2018-09-08T08:55:02.132Z,5.60
2018-09-08T08:57:29.857Z,5.90
2018-09-08T08:59:57.640Z,6.20
2018-09-08T09:02:25.423Z,5.47
2018-09-08T09:04:53.173Z,5.67
2018-09-08T09:07:20.901Z,6.07
2018-09-08T09:09:48.652Z,5.57
2018-09-08T09:12:16.367Z,6.40
2018-09-08T09:14:44.136Z,5.67
2018-09-08T09:17:11.868Z,5.53
2018-09-08T09:19:50.824Z,5.57
2018-09-08T09:22:29.799Z,5.80
2018-09-08T09:25:05.983Z,5.17
2018-09-08T09:27:36.104Z,5.43
2018-09-08T09:30:04.382Z,5.63
2018-09-08T09:32:32.146Z,5.20
2018-09-08T09:34:59.868Z,6.23
2018-09-08T09:37:27.651Z,6.47
2018-09-08T09:39:56.301Z,5.23
2018-09-08T09:42:23.994Z,5.70
2018-09-08T09:44:51.700Z,5.20
2018-09-08T09:47:19.569Z,5.80
2018-09-08T09:49:47.288Z,9.10
2018-09-08T09:52:15.035Z,5.97
2018-09-08T09:54:42.912Z,7.50
2018-09-08T09:57:10.665Z,5.17
2018-09-08T09:59:38.484Z,5.37
2018-09-08T10:02:11.733Z,4.93
2018-09-08T10:04:39.491Z,5.23
2018-09-08T10:07:10.441Z,5.33
2018-09-08T10:09:39.473Z,6.13
2018-09-08T10:12:07.259Z,5.43
2018-09-08T10:14:35.000Z,5.30
2018-09-08T10:17:02.792Z,5.27
2018-09-08T10:19:30.541Z,4.80
2018-09-08T10:21:58.326Z,5.03
2018-09-08T10:24:26.127Z,4.60
2018-09-08T10:26:53.853Z,5.00
2018-09-08T10:29:21.632Z,6.20
2018-09-08T10:31:49.940Z,5.73
2018-09-08T10:34:17.197Z,5.00
2018-09-08T10:36:44.930Z,4.67
2018-09-08T10:39:12.652Z,6.03
2018-09-08T10:41:40.400Z,5.27
2018-09-08T10:44:08.334Z,4.33
2018-09-08T10:46:36.092Z,4.53
2018-09-08T10:49:03.844Z,5.30
2018-09-08T10:52:38.014Z,4.23
2018-09-08T10:55:05.854Z,3.67
2018-09-08T10:57:33.603Z,3.43
2018-09-08T11:00:02.156Z,4.37
2018-09-08T11:02:30.601Z,5.60
2018-09-08T11:04:58.129Z,3.80
2018-09-08T11:07:25.912Z,5.07
2018-09-08T11:09:53.712Z,4.00
2018-09-08T11:12:21.482Z,4.23
2018-09-08T11:14:49.241Z,5.50
2018-09-08T11:17:17.017Z,3.70
2018-09-08T11:19:44.731Z,4.00
2018-09-08T11:22:12.661Z,5.07
2018-09-08T11:24:40.388Z,3.70
2018-09-08T11:27:08.224Z,4.37
2018-09-08T11:29:36.080Z,3.63
2018-09-08T11:32:03.842Z,4.20
2018-09-08T11:34:31.701Z,4.20
2018-09-08T11:36:59.463Z,4.93
2018-09-08T11:39:27.251Z,4.57
2018-09-08T11:41:55.014Z,3.93
2018-09-08T11:44:22.720Z,7.00
2018-09-08T11:46:50.538Z,4.90
2018-09-08T11:49:18.259Z,4.40
2018-09-08T11:51:46.004Z,5.10
2018-09-08T11:54:13.808Z,4.00
2018-09-08T11:56:41.524Z,4.10
2018-09-08T11:59:09.271Z,4.13
2018-09-08T12:01:37.062Z,4.73
2018-09-08T12:04:04.826Z,4.17
2018-09-08T12:06:32.609Z,4.30
2018-09-08T12:09:00.366Z,6.00
2018-09-08T12:11:28.079Z,3.93
2018-09-08T12:13:55.854Z,3.40
2018-09-08T12:16:23.592Z,4.53
2018-09-08T12:18:51.356Z,4.00
2018-09-08T12:21:19.076Z,16.40
2018-09-08T12:23:46.840Z,5.30
2018-09-08T12:26:14.602Z,9.23
2018-09-08T12:28:42.368Z,6.23
2018-09-08T12:31:10.089Z,3.73
2018-09-08T12:33:37.857Z,6.57
2018-09-08T12:36:05.948Z,13.20
2018-09-08T12:38:33.757Z,5.53
2018-09-08T12:41:01.564Z,4.03
2018-09-08T12:43:29.259Z,9.60
2018-09-08T12:45:57.091Z,4.03
2018-09-08T12:48:24.749Z,6.20
2018-09-08T12:50:52.468Z,6.43
2018-09-08T12:53:20.292Z,8.33
2018-09-08T12:55:48.004Z,8.17
2018-09-08T12:58:15.724Z,5.63
2018-09-08T13:00:43.456Z,5.43
2018-09-08T13:03:11.329Z,8.83
2018-09-08T13:05:39.088Z,4.57
2018-09-08T13:08:06.859Z,4.00
2018-09-08T13:10:34.801Z,4.03
2018-09-08T13:13:02.563Z,4.07
2018-09-08T13:15:30.333Z,9.07
2018-09-08T13:17:58.060Z,5.63
2018-09-08T13:20:25.793Z,4.63
2018-09-08T13:22:53.537Z,4.23
2018-09-08T13:25:21.244Z,4.03
2018-09-08T13:27:48.984Z,3.73
2018-09-08T13:30:16.663Z,4.30
2018-09-08T13:32:44.400Z,6.70
2018-09-08T13:35:12.231Z,5.67
2018-09-08T13:37:39.953Z,7.00
2018-09-08T13:40:07.718Z,6.30
2018-09-08T13:42:35.548Z,4.67
2018-09-08T13:45:03.328Z,4.73
2018-09-08T13:47:31.085Z,4.00
2018-09-08T13:49:58.795Z,5.67
2018-09-08T13:52:26.550Z,6.40
2018-09-08T13:54:54.322Z,3.27
2018-09-08T13:57:22.073Z,5.53
2018-09-08T13:59:49.752Z,3.13
2018-09-08T14:02:17.624Z,5.90
2018-09-08T14:04:45.356Z,3.70
2018-09-08T14:07:13.061Z,7.10
2018-09-08T14:09:41.087Z,4.80
2018-09-08T14:12:08.795Z,3.80
2018-09-08T14:14:36.547Z,3.93
2018-09-08T14:17:04.553Z,4.00
2018-09-08T14:19:32.261Z,6.07
2018-09-08T14:22:00.055Z,5.90
2018-09-08T14:24:27.909Z,3.27
2018-09-08T14:26:55.773Z,5.13
2018-09-08T14:29:23.540Z,5.53
2018-09-08T14:31:51.320Z,5.17
2018-09-08T14:34:19.048Z,5.03
2018-09-08T14:36:46.886Z,3.70
2018-09-08T14:39:14.692Z,6.53
2018-09-08T14:41:42.604Z,7.40
2018-09-08T14:44:10.338Z,2.93
2018-09-08T14:46:38.028Z,2.63
2018-09-08T14:49:05.906Z,4.10
2018-09-08T14:51:33.896Z,3.63
2018-09-08T14:54:01.660Z,3.30
2018-09-08T14:56:29.361Z,2.83
2018-09-08T14:58:57.157Z,5.60
2018-09-08T15:01:24.847Z,7.90
2018-09-08T15:03:52.608Z,6.07
2018-09-08T15:06:20.366Z,8.13
2018-09-08T15:08:48.089Z,3.00
2018-09-08T15:11:15.846Z,2.97
2018-09-08T15:13:43.588Z,2.90
2018-09-08T15:16:11.327Z,4.30
2018-09-08T15:18:39.081Z,4.80
2018-09-08T15:21:07.035Z,6.13
2018-09-08T15:23:34.785Z,5.57
2018-09-08T15:26:02.576Z,2.80
2018-09-08T15:28:30.371Z,5.00
2018-09-08T15:30:58.124Z,6.03
2018-09-08T15:33:25.884Z,2.87
2018-09-08T15:35:53.590Z,3.93
2018-09-08T15:38:21.344Z,2.63
2018-09-08T15:40:49.088Z,3.43
2018-09-08T15:43:16.802Z,3.50
2018-09-08T15:45:44.573Z,4.80
2018-09-08T15:48:12.309Z,5.83
2018-09-08T15:50:40.074Z,4.17
2018-09-08T15:53:07.813Z,3.03
2018-09-08T15:55:35.549Z,2.43
2018-09-08T15:58:03.292Z,6.23
2018-09-08T16:00:31.268Z,4.20
2018-09-08T16:02:59.065Z,2.70
2018-09-08T16:05:26.862Z,2.93
2018-09-08T16:07:54.630Z,4.93
2018-09-08T16:10:22.365Z,6.00
2018-09-08T16:12:50.108Z,6.50
2018-09-08T16:15:17.959Z,5.07
2018-09-08T16:17:45.736Z,6.00
2018-09-08T16:20:13.456Z,4.47
2018-09-08T16:22:41.256Z,7.10
2018-09-08T16:25:08.973Z,5.83
2018-09-08T16:27:36.767Z,2.73
2018-09-08T16:30:04.554Z,4.43
2018-09-08T16:32:32.275Z,4.57
2018-09-08T16:34:59.997Z,3.37
2018-09-08T16:37:27.716Z,3.53
2018-09-08T16:39:55.424Z,4.60
2018-09-08T16:42:23.120Z,5.60
2018-09-08T16:44:50.872Z,2.70
2018-09-08T16:47:18.576Z,4.80
2018-09-08T16:49:46.325Z,6.70
2018-09-08T16:52:14.142Z,4.30
2018-09-08T16:54:41.793Z,5.40
2018-09-08T16:57:09.531Z,8.37
2018-09-08T16:59:37.215Z,6.17
2018-09-08T17:02:04.948Z,7.50
2018-09-08T17:04:32.665Z,3.60
2018-09-08T17:07:00.465Z,5.80
2018-09-08T17:09:28.155Z,4.90
2018-09-08T17:11:55.898Z,6.80
2018-09-08T17:14:23.652Z,3.07
2018-09-08T17:16:51.368Z,5.60
2018-09-08T17:19:19.068Z,6.93
2018-09-08T17:21:46.812Z,2.30
2018-09-08T17:24:14.555Z,4.33
2018-09-08T17:26:42.322Z,3.50
2018-09-08T17:29:10.033Z,5.27
2018-09-08T17:31:37.739Z,3.10
2018-09-08T17:34:05.535Z,3.93
2018-09-08T17:36:33.240Z,4.73
2018-09-08T17:39:00.972Z,7.13
2018-09-08T17:41:28.746Z,9.10
2018-09-08T17:43:56.504Z,8.23
2018-09-08T17:46:24.337Z,4.13
2018-09-08T17:48:52.160Z,5.57
2018-09-08T17:51:19.910Z,3.27
2018-09-08T17:53:47.676Z,13.30
2018-09-08T17:56:15.406Z,12.67
2018-09-08T17:58:43.178Z,15.03
2018-09-08T18:01:11.760Z,6.00
2018-09-08T18:03:39.484Z,10.43
2018-09-08T18:06:07.269Z,12.80
2018-09-08T18:08:35.066Z,4.17
2018-09-08T18:11:02.776Z,8.47
2018-09-08T18:13:30.500Z,5.57
2018-09-08T18:15:58.236Z,14.67
2018-09-08T18:18:26.011Z,24.07
2018-09-08T18:20:53.696Z,3.37
2018-09-08T18:23:21.456Z,9.03
2018-09-08T18:25:49.232Z,7.13
2018-09-08T18:28:16.939Z,10.27
2018-09-08T18:30:44.815Z,7.70
2018-09-08T18:33:12.532Z,5.73
2018-09-08T18:35:40.251Z,4.93
2018-09-08T18:38:08.056Z,23.83
2018-09-08T18:40:35.743Z,7.17
2018-09-08T18:43:03.485Z,13.50
2018-09-08T18:45:31.201Z,4.30
2018-09-08T18:47:59.236Z,5.40
2018-09-08T18:50:27.020Z,4.90
2018-09-08T18:52:54.755Z,5.87
2018-09-08T18:55:22.471Z,3.67
2018-09-08T18:57:50.667Z,15.60
2018-09-08T19:00:18.396Z,12.70
2018-09-08T19:02:46.111Z,6.37
2018-09-08T19:05:13.815Z,8.40
2018-09-08T19:07:41.511Z,6.73
2018-09-08T19:10:09.272Z,7.77
2018-09-08T19:12:36.992Z,4.23
2018-09-08T19:15:10.288Z,5.73
2018-09-08T19:17:38.018Z,3.50
2018-09-08T19:20:11.444Z,5.20
2018-09-08T19:22:39.220Z,6.47
2018-09-08T19:25:06.941Z,12.20
2018-09-08T19:27:34.657Z,5.70
2018-09-08T19:30:03.157Z,5.90
2018-09-08T19:32:30.934Z,3.70
2018-09-08T19:35:04.111Z,4.97
2018-09-08T19:37:34.833Z,5.30
2018-09-08T19:40:02.621Z,5.37
2018-09-08T19:42:30.988Z,3.43
2018-09-08T19:44:58.808Z,3.60
2018-09-08T19:47:32.041Z,9.70
2018-09-08T19:49:59.789Z,6.17
2018-09-08T19:52:33.248Z,5.07
2018-09-08T19:55:01.152Z,3.43
2018-09-08T19:57:34.496Z,6.53
2018-09-08T20:00:02.276Z,6.90
2018-09-08T20:02:30.025Z,3.50
2018-09-08T20:04:57.749Z,3.90
2018-09-08T20:07:25.526Z,12.27
2018-09-08T20:09:53.244Z,7.37
2018-09-08T20:12:20.967Z,7.67
2018-09-08T20:14:48.674Z,4.30
2018-09-08T20:17:16.370Z,7.83
2018-09-08T20:19:44.158Z,4.13
2018-09-08T20:22:11.816Z,3.87
2018-09-08T20:24:39.575Z,4.90
2018-09-08T20:27:07.334Z,6.90
2018-09-08T20:29:35.064Z,5.60
2018-09-08T20:32:02.797Z,7.43
2018-09-08T20:34:30.671Z,7.50
2018-09-08T20:36:58.460Z,3.40
2018-09-08T20:39:26.171Z,5.33
2018-09-08T20:41:53.864Z,4.43
2018-09-08T20:44:21.732Z,6.40
2018-09-08T20:46:49.403Z,3.23
2018-09-08T20:49:17.119Z,5.60
2018-09-08T20:51:44.876Z,4.87
2018-09-08T20:54:12.588Z,6.10
2018-09-08T20:56:40.281Z,4.40
2018-09-08T20:59:08.106Z,58.43
2018-09-08T21:01:35.817Z,7.30
2018-09-08T21:04:03.631Z,11.40
2018-09-08T21:06:31.332Z,8.03
2018-09-08T21:08:59.067Z,7.17
2018-09-08T21:11:26.924Z,7.43
2018-09-08T21:13:54.652Z,7.83
2018-09-08T21:16:22.352Z,30.90
2018-09-08T21:18:50.090Z,19.33
2018-09-08T21:21:17.778Z,8.83
2018-09-08T21:23:45.457Z,4.43
2018-09-08T21:26:13.189Z,16.17
2018-09-08T21:28:40.907Z,10.13
2018-09-08T21:31:08.627Z,7.10
2018-09-08T21:33:36.319Z,18.13
2018-09-08T21:36:04.067Z,10.47
2018-09-08T21:38:31.769Z,4.77
2018-09-08T21:40:59.487Z,7.27
2018-09-08T21:43:27.279Z,20.10
2018-09-08T21:45:54.983Z,15.13
2018-09-08T21:48:22.696Z,17.23
2018-09-08T21:50:50.440Z,10.03
2018-09-08T21:53:18.123Z,9.73
2018-09-08T21:55:45.831Z,9.20
2018-09-08T21:58:13.569Z,6.23
2018-09-08T22:00:45.856Z,7.97
2018-09-08T22:03:13.584Z,6.30
2018-09-08T22:05:41.272Z,14.57
2018-09-08T22:08:08.976Z,10.97
2018-09-08T22:10:36.679Z,11.10
2018-09-08T22:13:04.373Z,13.70
2018-09-08T22:15:32.058Z,5.73
2018-09-08T22:17:59.794Z,9.70
2018-09-08T22:20:27.720Z,12.03
2018-09-08T22:22:55.414Z,14.40
2018-09-08T22:25:23.150Z,11.97
2018-09-08T22:27:50.888Z,10.40
2018-09-08T22:30:18.618Z,7.63
2018-09-08T22:32:46.338Z,25.03
2018-09-08T22:35:14.035Z,13.23
2018-09-08T22:37:41.765Z,8.03
2018-09-08T22:40:09.448Z,17.87
2018-09-08T22:42:37.141Z,11.93
2018-09-08T22:45:05.005Z,7.10
2018-09-08T22:47:32.691Z,9.43
2018-09-08T22:50:00.441Z,6.20
2018-09-08T22:52:28.275Z,13.33
2018-09-08T22:54:55.993Z,10.17
2018-09-08T22:57:23.724Z,13.67
2018-09-08T22:59:51.436Z,9.53
2018-09-08T23:02:19.180Z,12.07
2018-09-08T23:04:46.844Z,7.60
2018-09-08T23:07:14.562Z,13.10
2018-09-08T23:09:42.716Z,7.77
2018-09-08T23:12:10.447Z,7.40
2018-09-08T23:14:38.142Z,11.67
2018-09-08T23:17:05.977Z,11.27
2018-09-08T23:19:33.669Z,8.87
2018-09-08T23:22:01.384Z,11.53
2018-09-08T23:24:29.113Z,6.47
2018-09-08T23:26:56.808Z,5.87
2018-09-08T23:29:24.760Z,6.23
2018-09-08T23:31:52.460Z,7.63
2018-09-08T23:34:20.197Z,8.50
2018-09-08T23:36:47.884Z,10.33
2018-09-08T23:39:15.615Z,9.03
2018-09-08T23:41:43.314Z,11.17
2018-09-08T23:44:11.000Z,8.83
2018-09-08T23:46:38.668Z,8.00
2018-09-08T23:49:06.376Z,45.83
2018-09-08T23:51:34.080Z,11.60
2018-09-08T23:54:01.848Z,9.63
2018-09-08T23:56:29.592Z,13.60
2018-09-08T23:58:57.308Z,28.87
